Time,TemperatureF,DewpointF,PressureIn,WindDirection,WindDirectionDegrees,WindSpeedMPH,WindSpeedGustMPH,Humidity,HourlyPrecipIn,Conditions,Clouds,dailyrainin,SoftwareType,DateUTC
2013-05-26 00:01:00,71.5,63.9,29.91,ESE,122,6.9,6.9,77,0.00,RA,SKC,0.00,WeatherDisplay:10.37,2013-05-26 05:01:00,
2013-05-26 00:06:00,71.5,63.9,29.91,SE,127,8.1,8.1,77,0.00,RA,SKC,0.00,WeatherDisplay:10.37,2013-05-26 05:06:00,
2013-05-26 00:11:00,71.5,63.9,29.91,SE,136,6.9,6.9,77,0.00,CLR,SKC,0.00,WeatherDisplay:10.37,2013-05-26 05:11:00,
2013-05-26 00:16:00,71.5,63.9,29.91,ESE,116,7.4,7.4,77,0.00,CLR,SKC,0.00,WeatherDisplay:10.37,2013-05-26 05:16:00,
2013-05-26 00:21:00,71.4,63.8,29.91,SE,124,6.9,6.9,77,0.00,CLR,SKC,0.00,WeatherDisplay:10.37,2013-05-26 05:21:00,
2013-05-26 00:26:00,71.5,63.9,29.91,SE,135,6.9,6.9,77,0.00,CLR,SKC,0.00,WeatherDisplay:10.37,2013-05-26 05:26:00,
2013-05-26 00:31:00,71.5,63.9,29.91,ESE,107,7.4,7.4,77,0.00,CLR,SKC,0.00,WeatherDisplay:10.37,2013-05-26 05:31:00,
2013-05-26 00:36:00,71.5,63.9,29.91,SE,134,6.4,6.4,77,0.00,CLR,SKC,0.00,WeatherDisplay:10.37,2013-05-26 05:36:00,
2013-05-26 00:41:00,71.6,64.0,29.91,ESE,114,7.4,7.4,77,0.00,CLR,SKC,0.00,WeatherDisplay:10.37,2013-05-26 05:41:00,
2013-05-26 00:46:00,71.6,64.0,29.90,ESE,121,9.5,9.5,77,0.00,CLR,SKC,0.00,WeatherDisplay:10.37,2013-05-26 05:46:00,
2013-05-26 00:51:00,71.7,64.1,29.91,SE,131,9.2,9.2,77,0.00,CLR,SKC,0.00,WeatherDisplay:10.37,2013-05-26 05:51:00,
2013-05-26 00:56:00,71.8,64.2,29.91,SE,141,7.4,7.4,77,0.00,CLR,SKC,0.00,WeatherDisplay:10.37,2013-05-26 05:56:00,
2013-05-26 01:01:00,71.6,64.0,29.90,SE,136,8.5,8.5,77,0.00,CLR,SKC,0.00,WeatherDisplay:10.37,2013-05-26 06:01:00,
2013-05-26 01:06:00,71.3,64.1,29.90,ESE,112,9.5,9.5,78,0.00,CLR,SKC,0.00,WeatherDisplay:10.37,2013-05-26 06:06:00,
2013-05-26 01:11:00,70.8,64.0,29.90,SE,144,7.4,7.4,79,0.00,CLR,SKC,0.00,WeatherDisplay:10.37,2013-05-26 06:11:00,
2013-05-26 01:16:00,70.8,64.0,29.89,SE,130,9.2,9.2,79,0.00,CLR,SKC,0.00,WeatherDisplay:10.37,2013-05-26 06:16:00,
2013-05-26 01:21:00,71.0,63.8,29.89,ESE,107,8.5,8.5,78,0.00,CLR,SKC,0.00,WeatherDisplay:10.37,2013-05-26 06:21:00,
2013-05-26 01:26:00,71.0,63.8,29.89,ESE,122,9.5,9.5,78,0.00,CLR,SKC,0.00,WeatherDisplay:10.37,2013-05-26 06:26:00,
2013-05-26 01:31:00,70.9,63.7,29.88,East,96,10.6,10.6,78,0.00,CLR,SKC,0.00,WeatherDisplay:10.37,2013-05-26 06:31:00,
2013-05-26 01:36:00,70.7,63.9,29.89,East,92,10.4,10.4,79,0.00,CLR,SKC,0.00,WeatherDisplay:10.37,2013-05-26 06:36:00,
2013-05-26 01:41:00,70.6,63.8,29.89,ESE,114,10.6,10.6,79,0.00,CLR,SKC,0.00,WeatherDisplay:10.37,2013-05-26 06:41:00,
2013-05-26 01:46:00,70.5,63.7,29.89,East,101,8.5,8.5,79,0.00,CLR,SKC,0.00,WeatherDisplay:10.37,2013-05-26 06:46:00,
2013-05-26 01:51:00,70.0,63.2,29.89,East,97,7.4,7.4,79,0.00,CLR,SKC,0.00,WeatherDisplay:10.37,2013-05-26 06:51:00,
2013-05-26 01:56:00,69.5,63.1,29.90,East,91,9.5,9.5,80,0.00,CLR,SKC,0.00,WeatherDisplay:10.37,2013-05-26 06:56:00,
2013-05-26 02:01:00,69.3,63.2,29.90,East,101,8.5,8.5,81,0.00,CLR,SKC,0.00,WeatherDisplay:10.37,2013-05-26 07:01:00,
2013-05-26 02:06:00,69.4,63.3,29.90,ESE,113,10.6,10.6,81,0.00,CLR,SKC,0.00,WeatherDisplay:10.37,2013-05-26 07:06:00,
2013-05-26 02:11:00,69.5,63.4,29.90,ESE,118,6.9,6.9,81,0.00,CLR,SKC,0.00,WeatherDisplay:10.37,2013-05-26 07:11:00,
2013-05-26 02:16:00,69.5,63.4,29.90,ESE,105,7.4,7.4,81,0.00,CLR,SKC,0.00,WeatherDisplay:10.37,2013-05-26 07:16:00,
2013-05-26 02:21:00,69.6,63.5,29.90,SE,129,8.1,8.1,81,0.00,CLR,SKC,0.00,WeatherDisplay:10.37,2013-05-26 07:21:00,
2013-05-26 02:26:00,69.7,63.6,29.89,ESE,107,8.5,8.5,81,0.00,CLR,SKC,0.00,WeatherDisplay:10.37,2013-05-26 07:26:00,
2013-05-26 02:31:00,69.7,63.6,29.89,ESE,115,9.5,9.5,81,0.00,CLR,SKC,0.00,WeatherDisplay:10.37,2013-05-26 07:31:00,
2013-05-26 02:36:00,69.6,63.9,29.89,SE,129,9.5,9.5,82,0.00,CLR,SKC,0.00,WeatherDisplay:10.37,2013-05-26 07:36:00,
2013-05-26 02:41:00,69.4,63.7,29.88,ESE,115,11.7,11.7,82,0.00,CLR,SKC,0.00,WeatherDisplay:10.37,2013-05-26 07:41:00,
2013-05-26 02:46:00,69.4,63.7,29.88,SE,130,10.6,10.6,82,0.00,CLR,SKC,0.00,WeatherDisplay:10.37,2013-05-26 07:46:00,
2013-05-26 02:52:00,69.4,63.7,29.88,ESE,118,10.6,10.6,82,0.00,CLR,SKC,0.00,WeatherDisplay:10.37,2013-05-26 07:52:00,
2013-05-26 02:57:00,69.4,63.7,29.88,SE,134,9.5,9.5,82,0.00,CLR,SKC,0.00,WeatherDisplay:10.37,2013-05-26 07:57:00,
2013-05-26 03:02:00,69.3,63.9,29.88,ESE,108,11.7,11.7,83,0.00,CLR,SKC,0.00,WeatherDisplay:10.37,2013-05-26 08:02:00,
2013-05-26 03:07:00,69.3,63.9,29.87,ESE,117,11.7,11.7,83,0.00,CLR,SKC,0.00,WeatherDisplay:10.37,2013-05-26 08:07:00,
2013-05-26 03:12:00,69.3,63.9,29.87,ESE,121,11.7,11.7,83,0.00,CLR,SKC,0.00,WeatherDisplay:10.37,2013-05-26 08:12:00,
2013-05-26 03:17:00,69.4,64.0,29.86,SE,132,12.7,12.7,83,0.00,CLR,SKC,0.00,WeatherDisplay:10.37,2013-05-26 08:17:00,
2013-05-26 03:22:00,69.4,64.0,29.86,SE,135,11.5,11.5,83,0.00,CLR,SKC,0.00,WeatherDisplay:10.37,2013-05-26 08:22:00,
2013-05-26 03:27:00,69.3,64.3,29.86,SE,126,12.7,12.7,84,0.00,CLR,SKC,0.00,WeatherDisplay:10.37,2013-05-26 08:27:00,
2013-05-26 03:32:00,69.3,64.3,29.86,SE,125,12.7,12.7,84,0.00,CLR,SKC,0.00,WeatherDisplay:10.37,2013-05-26 08:32:00,
2013-05-26 03:37:00,69.1,64.1,29.86,SE,134,10.6,10.6,84,0.00,CLR,SKC,0.00,WeatherDisplay:10.37,2013-05-26 08:37:00,
2013-05-26 03:42:00,69.0,64.0,29.86,ESE,122,10.4,10.4,84,0.00,CLR,SKC,0.00,WeatherDisplay:10.37,2013-05-26 08:42:00,
2013-05-26 03:47:00,68.9,64.2,29.86,ESE,118,10.6,10.6,85,0.00,CLR,SKC,0.00,WeatherDisplay:10.37,2013-05-26 08:47:00,
2013-05-26 03:52:00,68.9,64.2,29.86,SSE,158,11.7,11.7,85,0.00,CLR,SKC,0.00,WeatherDisplay:10.37,2013-05-26 08:52:00,
2013-05-26 03:57:00,68.9,64.2,29.86,SE,136,9.2,9.2,85,0.00,CLR,SKC,0.00,WeatherDisplay:10.37,2013-05-26 08:57:00,
2013-05-26 04:02:00,68.7,64.0,29.86,East,100,6.9,6.9,85,0.00,CLR,SKC,0.00,WeatherDisplay:10.37,2013-05-26 09:02:00,
2013-05-26 04:07:00,68.6,64.2,29.86,ESE,117,8.5,8.5,86,0.00,CLR,SKC,0.00,WeatherDisplay:10.37,2013-05-26 09:07:00,
2013-05-26 04:12:00,68.6,64.2,29.86,ESE,116,9.2,9.2,86,0.00,CLR,SKC,0.00,WeatherDisplay:10.37,2013-05-26 09:12:00,
2013-05-26 04:17:00,68.4,64.0,29.86,East,99,6.9,6.9,86,0.00,CLR,SKC,0.00,WeatherDisplay:10.37,2013-05-26 09:17:00,
2013-05-26 04:22:00,68.2,63.9,29.86,SE,126,6.9,6.9,86,0.00,CLR,SKC,0.00,WeatherDisplay:10.37,2013-05-26 09:22:00,
2013-05-26 04:27:00,68.0,64.0,29.86,ESE,117,8.1,8.1,87,0.00,CLR,SKC,0.00,WeatherDisplay:10.37,2013-05-26 09:27:00,
2013-05-26 04:32:00,68.1,64.1,29.85,SE,124,9.5,9.5,87,0.00,CLR,SKC,0.00,WeatherDisplay:10.37,2013-05-26 09:32:00,
2013-05-26 04:37:00,67.9,63.9,29.85,ESE,109,8.1,8.1,87,0.00,CLR,SKC,0.00,WeatherDisplay:10.37,2013-05-26 09:37:00,
2013-05-26 04:42:00,67.9,64.2,29.85,ESE,107,9.5,9.5,88,0.00,CLR,SKC,0.00,WeatherDisplay:10.37,2013-05-26 09:42:00,
2013-05-26 04:47:00,67.8,64.1,29.84,ESE,117,8.5,8.5,88,0.00,CLR,SKC,0.00,WeatherDisplay:10.37,2013-05-26 09:47:00,
2013-05-26 04:52:00,68.1,64.4,29.84,ESE,122,8.5,8.5,88,0.00,CLR,SKC,0.00,WeatherDisplay:10.37,2013-05-26 09:52:00,
2013-05-26 04:57:00,68.4,64.4,29.84,SE,134,7.4,7.4,87,0.00,CLR,SKC,0.00,WeatherDisplay:10.37,2013-05-26 09:57:00,
2013-05-26 05:02:00,68.8,64.4,29.83,SSE,160,9.5,9.5,86,0.00,CLR,SKC,0.00,WeatherDisplay:10.37,2013-05-26 10:02:00,
2013-05-26 05:07:00,68.9,64.5,29.83,ESE,122,9.5,9.5,86,0.00,CLR,SKC,0.00,WeatherDisplay:10.37,2013-05-26 10:07:00,
2013-05-26 05:12:00,69.0,64.6,29.84,SE,145,8.5,8.5,86,0.00,CLR,SKC,0.00,WeatherDisplay:10.37,2013-05-26 10:12:00,
2013-05-26 05:17:00,69.0,64.3,29.83,ESE,121,9.5,9.5,85,0.00,CLR,SKC,0.00,WeatherDisplay:10.37,2013-05-26 10:17:00,
2013-05-26 05:22:00,69.1,64.4,29.83,SE,132,10.6,10.6,85,0.00,CLR,SKC,0.00,WeatherDisplay:10.37,2013-05-26 10:22:00,
2013-05-26 05:27:00,69.1,64.4,29.84,SE,137,5.8,5.8,85,0.00,CLR,SKC,0.00,WeatherDisplay:10.37,2013-05-26 10:27:00,
2013-05-26 05:32:00,69.0,64.3,29.85,SSW,194,4.6,4.6,85,0.00,CLR,SKC,0.00,WeatherDisplay:10.37,2013-05-26 10:32:00,
2013-05-26 05:37:00,68.8,64.4,29.85,SSE,158,6.4,6.4,86,0.00,CLR,SKC,0.00,WeatherDisplay:10.37,2013-05-26 10:37:00,
2013-05-26 05:42:00,68.7,64.3,29.84,SSE,149,5.3,5.3,86,0.00,CLR,SKC,0.00,WeatherDisplay:10.37,2013-05-26 10:42:00,
2013-05-26 05:47:00,68.4,64.4,29.85,SSE,149,5.8,5.8,87,0.00,CLR,SKC,0.00,WeatherDisplay:10.37,2013-05-26 10:47:00,
2013-05-26 05:52:00,68.3,64.6,29.85,SSE,152,5.8,5.8,88,0.00,CLR,SKC,0.00,WeatherDisplay:10.37,2013-05-26 10:52:00,
2013-05-26 05:57:00,68.1,64.4,29.85,ESE,123,4.6,4.6,88,0.00,CLR,SKC,0.00,WeatherDisplay:10.37,2013-05-26 10:57:00,
2013-05-26 06:02:00,68.0,64.3,29.84,SE,141,5.8,5.8,88,0.00,CLR,SKC,0.00,WeatherDisplay:10.37,2013-05-26 11:02:00,
2013-05-26 06:07:00,68.1,64.7,29.84,SE,146,5.8,5.8,89,0.00,CLR,SKC,0.00,WeatherDisplay:10.37,2013-05-26 11:07:00,
2013-05-26 06:12:00,68.2,64.8,29.84,SE,134,6.4,6.4,89,0.00,CLR,SKC,0.00,WeatherDisplay:10.37,2013-05-26 11:12:00,
2013-05-26 06:17:00,68.3,64.9,29.85,SSE,157,5.8,5.8,89,0.00,CLR,SKC,0.00,WeatherDisplay:10.37,2013-05-26 11:17:00,
2013-05-26 06:22:00,68.3,64.9,29.85,SSE,153,3.5,3.5,89,0.00,CLR,SKC,0.00,WeatherDisplay:10.37,2013-05-26 11:22:00,
2013-05-26 06:27:00,68.2,64.8,29.85,SSE,162,6.9,6.9,89,0.00,CLR,SKC,0.00,WeatherDisplay:10.37,2013-05-26 11:27:00,
2013-05-26 06:32:00,68.3,64.9,29.85,SE,139,4.6,4.6,89,0.00,CLR,SKC,0.00,WeatherDisplay:10.37,2013-05-26 11:32:00,
2013-05-26 06:37:00,68.3,64.9,29.85,SSE,151,6.4,6.4,89,0.00,CLR,SKC,0.00,WeatherDisplay:10.37,2013-05-26 11:37:00,
2013-05-26 06:42:00,68.5,65.1,29.85,SE,138,6.9,6.9,89,0.00,CLR,SKC,0.00,WeatherDisplay:10.37,2013-05-26 11:42:00,
2013-05-26 06:47:00,68.7,65.3,29.85,SE,127,7.4,7.4,89,0.00,CLR,SKC,0.00,WeatherDisplay:10.37,2013-05-26 11:47:00,
2013-05-26 06:52:00,68.8,65.4,29.85,SSE,163,11.7,11.7,89,0.00,CLR,SKC,0.00,WeatherDisplay:10.37,2013-05-26 11:52:00,
2013-05-26 06:57:00,69.0,65.3,29.85,SE,139,8.5,8.5,88,0.00,CLR,SKC,0.00,WeatherDisplay:10.37,2013-05-26 11:57:00,
2013-05-26 07:02:00,69.1,65.4,29.85,ESE,114,9.2,9.2,88,0.00,CLR,SKC,0.00,WeatherDisplay:10.37,2013-05-26 12:02:00,
2013-05-26 07:07:00,69.2,65.5,29.85,SE,143,5.8,5.8,88,0.00,CLR,SKC,0.00,WeatherDisplay:10.37,2013-05-26 12:07:00,
2013-05-26 07:12:00,69.2,65.5,29.86,South,177,6.9,6.9,88,0.00,CLR,SKC,0.00,WeatherDisplay:10.37,2013-05-26 12:12:00,
2013-05-26 07:17:00,69.3,65.6,29.86,SSW,211,3.5,3.5,88,0.00,CLR,SKC,0.00,WeatherDisplay:10.37,2013-05-26 12:17:00,
2013-05-26 07:22:00,69.3,65.6,29.86,SSE,147,5.8,5.8,88,0.00,CLR,SKC,0.00,WeatherDisplay:10.37,2013-05-26 12:22:00,
2013-05-26 07:27:00,69.4,65.7,29.87,SE,146,4.6,4.6,88,0.00,CLR,SKC,0.00,WeatherDisplay:10.37,2013-05-26 12:27:00,
2013-05-26 07:32:00,69.4,65.7,29.87,South,186,6.9,6.9,88,0.00,CLR,SKC,0.00,WeatherDisplay:10.37,2013-05-26 12:32:00,
2013-05-26 07:37:00,69.5,65.8,29.87,SSE,155,7.4,7.4,88,0.00,CLR,SKC,0.00,WeatherDisplay:10.37,2013-05-26 12:37:00,
2013-05-26 07:42:00,69.5,65.8,29.87,SE,140,5.3,5.3,88,0.00,CLR,SKC,0.00,WeatherDisplay:10.37,2013-05-26 12:42:00,
2013-05-26 07:47:00,69.5,65.8,29.87,SSE,149,3.5,3.5,88,0.00,CLR,SKC,0.00,WeatherDisplay:10.37,2013-05-26 12:47:00,
2013-05-26 07:52:00,69.6,65.9,29.87,SSE,147,5.8,5.8,88,0.00,CLR,SKC,0.00,WeatherDisplay:10.37,2013-05-26 12:52:00,
2013-05-26 07:57:00,69.6,65.9,29.87,South,176,6.4,6.4,88,0.00,CLR,SKC,0.00,WeatherDisplay:10.37,2013-05-26 12:57:00,
2013-05-26 08:02:00,69.7,66.0,29.87,SE,146,4.2,4.2,88,0.00,CLR,SKC,0.00,WeatherDisplay:10.37,2013-05-26 13:02:00,
2013-05-26 08:07:00,69.7,66.0,29.87,SE,126,6.9,6.9,88,0.00,CLR,SKC,0.00,WeatherDisplay:10.37,2013-05-26 13:07:00,
2013-05-26 08:12:00,69.8,66.1,29.86,ESE,119,6.4,6.4,88,0.00,CLR,SKC,0.00,WeatherDisplay:10.37,2013-05-26 13:12:00,
2013-05-26 08:17:00,69.9,65.9,29.86,ESE,119,7.4,7.4,87,0.00,CLR,SKC,0.00,WeatherDisplay:10.37,2013-05-26 13:17:00,
2013-05-26 08:22:00,69.9,65.9,29.87,SE,136,5.8,5.8,87,0.00,CLR,SKC,0.00,WeatherDisplay:10.37,2013-05-26 13:22:00,
2013-05-26 08:28:00,70.0,66.0,29.87,SSE,156,7.4,7.4,87,0.00,CLR,SKC,0.00,WeatherDisplay:10.37,2013-05-26 13:28:00,
2013-05-26 08:32:00,70.0,66.0,29.87,SE,135,6.4,6.4,87,0.00,CLR,SKC,0.00,WeatherDisplay:10.37,2013-05-26 13:32:00,
2013-05-26 08:38:00,70.1,66.0,29.87,East,101,7.4,7.4,87,0.00,CLR,SKC,0.00,WeatherDisplay:10.37,2013-05-26 13:38:00,
2013-05-26 08:43:00,70.1,65.7,29.87,SE,134,4.6,4.6,86,0.00,CLR,SKC,0.00,WeatherDisplay:10.37,2013-05-26 13:43:00,
2013-05-26 08:48:00,70.2,65.8,29.87,SE,124,7.4,7.4,86,0.00,CLR,SKC,0.00,WeatherDisplay:10.37,2013-05-26 13:48:00,
2013-05-26 08:53:00,70.3,65.9,29.88,SE,130,6.9,6.9,86,0.00,CLR,SKC,0.00,WeatherDisplay:10.37,2013-05-26 13:53:00,
2013-05-26 08:58:00,70.3,65.9,29.88,ESE,113,8.1,8.1,86,0.00,CLR,SKC,0.00,WeatherDisplay:10.37,2013-05-26 13:58:00,
2013-05-26 09:03:00,70.5,66.1,29.88,ESE,119,6.9,6.9,86,0.00,CLR,SKC,0.00,WeatherDisplay:10.37,2013-05-26 14:03:00,
2013-05-26 09:08:00,70.5,65.8,29.88,SE,136,9.5,9.5,85,0.00,CLR,SKC,0.00,WeatherDisplay:10.37,2013-05-26 14:08:00,
2013-05-26 09:13:00,70.6,66.2,29.87,ESE,121,7.4,7.4,86,0.00,CLR,SKC,0.00,WeatherDisplay:10.37,2013-05-26 14:13:00,
2013-05-26 09:18:00,70.7,66.0,29.87,SE,129,8.5,8.5,85,0.00,CLR,SKC,0.00,WeatherDisplay:10.37,2013-05-26 14:18:00,
2013-05-26 09:23:00,70.9,66.2,29.87,SE,131,7.4,7.4,85,0.00,CLR,SKC,0.00,WeatherDisplay:10.37,2013-05-26 14:23:00,
2013-05-26 09:28:00,71.0,65.9,29.87,ESE,119,7.4,7.4,84,0.00,CLR,SKC,0.00,WeatherDisplay:10.37,2013-05-26 14:28:00,
2013-05-26 09:33:00,71.1,66.0,29.87,SE,128,8.5,8.5,84,0.00,CLR,SKC,0.00,WeatherDisplay:10.37,2013-05-26 14:33:00,
2013-05-26 09:38:00,71.3,65.9,29.87,SE,139,9.5,9.5,83,0.00,CLR,SKC,0.00,WeatherDisplay:10.37,2013-05-26 14:38:00,
2013-05-26 09:43:00,71.5,66.4,29.87,SE,141,8.5,8.5,84,0.00,CLR,SKC,0.00,WeatherDisplay:10.37,2013-05-26 14:43:00,
2013-05-26 09:48:00,71.7,65.9,29.87,SE,124,9.5,9.5,82,0.00,CLR,SKC,0.00,WeatherDisplay:10.37,2013-05-26 14:48:00,
2013-05-26 09:53:00,71.9,66.1,29.86,ESE,115,9.5,9.5,82,0.00,CLR,SKC,0.00,WeatherDisplay:10.37,2013-05-26 14:53:00,
2013-05-26 09:58:00,72.3,66.5,29.86,SE,128,11.5,11.5,82,0.00,CLR,SKC,0.00,WeatherDisplay:10.37,2013-05-26 14:58:00,
2013-05-26 10:03:00,72.6,66.4,29.86,SE,131,7.4,7.4,81,0.00,CLR,SKC,0.00,WeatherDisplay:10.37,2013-05-26 15:03:00,
2013-05-26 10:08:00,72.7,66.5,29.86,South,172,9.5,9.5,81,0.00,CLR,SKC,0.00,WeatherDisplay:10.37,2013-05-26 15:08:00,
2013-05-26 10:13:00,72.9,67.1,29.87,ESE,113,8.1,8.1,82,0.00,CLR,SKC,0.00,WeatherDisplay:10.37,2013-05-26 15:13:00,
2013-05-26 10:18:00,73.3,66.8,29.86,SSE,153,10.6,10.6,80,0.00,CLR,SKC,0.00,WeatherDisplay:10.37,2013-05-26 15:18:00,
2013-05-26 10:23:00,73.4,66.5,29.86,ESE,122,11.5,11.5,79,0.00,CLR,SKC,0.00,WeatherDisplay:10.37,2013-05-26 15:23:00,
2013-05-26 10:28:00,74.0,67.1,29.86,SSE,153,11.7,11.7,79,0.00,CLR,SKC,0.00,WeatherDisplay:10.37,2013-05-26 15:28:00,
2013-05-26 10:33:00,74.3,67.4,29.86,SE,140,11.7,11.7,79,0.00,CLR,SKC,0.00,WeatherDisplay:10.37,2013-05-26 15:33:00,
2013-05-26 10:38:00,74.4,67.1,29.86,SE,138,9.5,9.5,78,0.00,CLR,SKC,0.00,WeatherDisplay:10.37,2013-05-26 15:38:00,
2013-05-26 10:43:00,75.0,67.7,29.86,SSE,148,12.7,12.7,78,0.00,CLR,SKC,0.00,WeatherDisplay:10.37,2013-05-26 15:43:00,
2013-05-26 10:48:00,75.1,67.4,29.86,SE,146,9.5,9.5,77,0.00,CLR,SKC,0.00,WeatherDisplay:10.37,2013-05-26 15:48:00,
2013-05-26 10:53:00,75.0,67.7,29.86,SSE,152,12.7,12.7,78,0.00,CLR,SKC,0.00,WeatherDisplay:10.37,2013-05-26 15:53:00,
2013-05-26 10:58:00,75.3,67.2,29.86,ESE,105,9.5,9.5,76,0.00,CLR,SKC,0.00,WeatherDisplay:10.37,2013-05-26 15:58:00,
2013-05-26 11:03:00,75.9,68.2,29.86,SSE,149,11.7,11.7,77,0.00,CLR,SKC,0.00,WeatherDisplay:10.37,2013-05-26 16:03:00,
2013-05-26 11:08:00,76.6,68.1,29.86,SE,130,10.6,10.6,75,0.00,CLR,SKC,0.00,WeatherDisplay:10.37,2013-05-26 16:08:00,
2013-05-26 11:13:00,77.4,68.5,29.86,SW,218,12.7,12.7,74,0.00,CLR,SKC,0.00,WeatherDisplay:10.37,2013-05-26 16:13:00,
2013-05-26 11:18:00,77.7,68.4,29.86,SE,143,9.5,9.5,73,0.00,CLR,SKC,0.00,WeatherDisplay:10.37,2013-05-26 16:18:00,
2013-05-26 11:23:00,77.7,68.4,29.86,South,189,11.5,11.5,73,0.00,CLR,SKC,0.00,WeatherDisplay:10.37,2013-05-26 16:23:00,
2013-05-26 11:28:00,77.5,67.8,29.86,SSE,153,12.7,12.7,72,0.00,CLR,SKC,0.00,WeatherDisplay:10.37,2013-05-26 16:28:00,
2013-05-26 11:33:00,77.4,68.1,29.85,SW,217,8.5,8.5,73,0.00,CLR,SKC,0.00,WeatherDisplay:10.37,2013-05-26 16:33:00,
2013-05-26 11:38:00,77.5,68.6,29.85,SW,214,9.5,9.5,74,0.00,CLR,SKC,0.00,WeatherDisplay:10.37,2013-05-26 16:38:00,
2013-05-26 11:43:00,78.1,68.7,29.85,SE,141,11.7,11.7,73,0.00,CLR,SKC,0.00,WeatherDisplay:10.37,2013-05-26 16:43:00,
2013-05-26 11:48:00,78.3,68.5,29.85,ESE,115,8.5,8.5,72,0.00,CLR,SKC,0.00,WeatherDisplay:10.37,2013-05-26 16:48:00,
2013-05-26 11:53:00,78.5,68.3,29.86,SW,230,8.5,8.5,71,0.00,CLR,SKC,0.00,WeatherDisplay:10.37,2013-05-26 16:53:00,
2013-05-26 11:58:00,78.4,68.2,29.86,SSW,202,7.4,7.4,71,0.00,CLR,SKC,0.00,WeatherDisplay:10.37,2013-05-26 16:58:00,
2013-05-26 12:03:00,78.2,68.4,29.86,South,172,8.5,8.5,72,0.00,CLR,SKC,0.00,WeatherDisplay:10.37,2013-05-26 17:03:00,
2013-05-26 12:08:00,77.8,67.6,29.86,SSW,193,10.4,10.4,71,0.00,CLR,SKC,0.00,WeatherDisplay:10.37,2013-05-26 17:08:00,
2013-05-26 12:13:00,77.6,67.9,29.86,South,169,10.6,10.6,72,0.00,CLR,SKC,0.00,WeatherDisplay:10.37,2013-05-26 17:13:00,
2013-05-26 12:18:00,77.6,68.3,29.86,South,186,9.5,9.5,73,0.00,CLR,SKC,0.00,WeatherDisplay:10.37,2013-05-26 17:18:00,
2013-05-26 12:23:00,78.1,68.3,29.86,South,174,7.4,7.4,72,0.00,CLR,SKC,0.00,WeatherDisplay:10.37,2013-05-26 17:23:00,
2013-05-26 12:28:00,79.4,68.8,29.85,SSE,148,9.5,9.5,70,0.00,CLR,SKC,0.00,WeatherDisplay:10.37,2013-05-26 17:28:00,
2013-05-26 12:33:00,79.8,68.7,29.85,SW,229,15.0,15.0,69,0.00,CLR,SKC,0.00,WeatherDisplay:10.37,2013-05-26 17:33:00,
2013-05-26 12:38:00,80.2,68.7,29.85,SSW,202,8.5,8.5,68,0.00,CLR,SKC,0.00,WeatherDisplay:10.37,2013-05-26 17:38:00,
2013-05-26 12:43:00,80.5,69.0,29.85,SW,226,12.7,12.7,68,0.00,CLR,SKC,0.00,WeatherDisplay:10.37,2013-05-26 17:43:00,
2013-05-26 12:48:00,80.7,68.3,29.85,SSW,202,12.7,12.7,66,0.00,CLR,SKC,0.00,WeatherDisplay:10.37,2013-05-26 17:48:00,
2013-05-26 12:53:00,80.6,68.6,29.85,South,173,13.8,13.8,67,0.00,CLR,SKC,0.00,WeatherDisplay:10.37,2013-05-26 17:53:00,
2013-05-26 12:58:00,80.2,68.2,29.85,SSW,192,11.5,11.5,67,0.00,CLR,SKC,0.00,WeatherDisplay:10.37,2013-05-26 17:58:00,
2013-05-26 13:03:00,80.0,68.1,29.85,SSE,158,11.7,11.7,67,0.00,CLR,SKC,0.00,WeatherDisplay:10.37,2013-05-26 18:03:00,
2013-05-26 13:08:00,79.7,67.8,29.84,SW,218,12.7,12.7,67,0.00,CLR,SKC,0.00,WeatherDisplay:10.37,2013-05-26 18:08:00,
2013-05-26 13:13:00,79.3,68.2,29.85,SW,215,15.0,15.0,69,0.00,CLR,SKC,0.00,WeatherDisplay:10.37,2013-05-26 18:13:00,
2013-05-26 13:18:00,79.1,68.1,29.84,SSE,165,11.7,11.7,69,0.00,CLR,SKC,0.00,WeatherDisplay:10.37,2013-05-26 18:18:00,
2013-05-26 13:23:00,79.1,68.5,29.84,South,191,8.5,8.5,70,0.00,CLR,SKC,0.00,WeatherDisplay:10.37,2013-05-26 18:23:00,
2013-05-26 13:28:00,79.3,68.2,29.84,SSW,193,9.5,9.5,69,0.00,CLR,SKC,0.00,WeatherDisplay:10.37,2013-05-26 18:28:00,
2013-05-26 13:33:00,79.4,68.3,29.84,South,182,10.6,10.6,69,0.00,CLR,SKC,0.00,WeatherDisplay:10.37,2013-05-26 18:33:00,
2013-05-26 13:38:00,79.3,69.1,29.84,SSE,161,12.7,12.7,71,0.00,CLR,SKC,0.00,WeatherDisplay:10.37,2013-05-26 18:38:00,
2013-05-26 13:43:00,79.5,68.9,29.84,South,174,12.7,12.7,70,0.00,CLR,SKC,0.00,WeatherDisplay:10.37,2013-05-26 18:43:00,
2013-05-26 13:48:00,79.7,68.6,29.84,SE,138,13.8,13.8,69,0.00,CLR,SKC,0.00,WeatherDisplay:10.37,2013-05-26 18:48:00,
2013-05-26 13:53:00,79.4,68.3,29.83,SSE,160,11.7,11.7,69,0.00,CLR,SKC,0.00,WeatherDisplay:10.37,2013-05-26 18:53:00,
2013-05-26 13:59:00,79.4,68.8,29.83,South,177,10.4,10.4,70,0.00,CLR,SKC,0.00,WeatherDisplay:10.37,2013-05-26 18:59:00,
2013-05-26 14:04:00,80.2,69.1,29.83,SSW,200,9.5,9.5,69,0.00,CLR,SKC,0.00,WeatherDisplay:10.37,2013-05-26 19:04:00,
2013-05-26 14:09:00,80.7,69.2,29.83,SSE,151,11.5,11.5,68,0.00,CLR,SKC,0.00,WeatherDisplay:10.37,2013-05-26 19:09:00,
2013-05-26 14:14:00,80.7,69.2,29.82,SSW,197,8.1,8.1,68,0.00,CLR,SKC,0.00,WeatherDisplay:10.37,2013-05-26 19:14:00,
2013-05-26 14:19:00,80.7,69.2,29.82,SSE,153,11.7,11.7,68,0.00,CLR,SKC,0.00,WeatherDisplay:10.37,2013-05-26 19:19:00,
2013-05-26 14:24:00,80.6,68.6,29.81,SSW,208,11.7,11.7,67,0.00,CLR,SKC,0.00,WeatherDisplay:10.37,2013-05-26 19:24:00,
2013-05-26 14:29:00,80.6,69.1,29.81,SE,146,15.9,15.9,68,0.00,CLR,SKC,0.00,WeatherDisplay:10.37,2013-05-26 19:29:00,
2013-05-26 14:34:00,81.1,69.5,29.81,ESE,123,5.8,5.8,68,0.00,CLR,SKC,0.00,WeatherDisplay:10.37,2013-05-26 19:34:00,
2013-05-26 14:39:00,81.3,68.9,29.80,SE,127,9.5,9.5,66,0.00,CLR,SKC,0.00,WeatherDisplay:10.37,2013-05-26 19:39:00,
2013-05-26 14:44:00,81.5,69.5,29.80,SE,137,11.5,11.5,67,0.00,CLR,SKC,0.00,WeatherDisplay:10.37,2013-05-26 19:44:00,
2013-05-26 14:49:00,82.0,69.5,29.80,SSE,151,11.5,11.5,66,0.00,CLR,SKC,0.00,WeatherDisplay:10.37,2013-05-26 19:49:00,
2013-05-26 14:54:00,82.4,70.3,29.80,SE,142,14.8,14.8,67,0.00,CLR,SKC,0.00,WeatherDisplay:10.37,2013-05-26 19:54:00,
2013-05-26 14:59:00,82.6,69.2,29.80,SE,131,17.3,17.3,64,0.00,CLR,SKC,0.00,WeatherDisplay:10.37,2013-05-26 19:59:00,
2013-05-26 15:04:00,82.7,70.2,29.80,South,190,6.9,6.9,66,0.00,CLR,SKC,0.00,WeatherDisplay:10.37,2013-05-26 20:04:00,
2013-05-26 15:09:00,83.2,69.8,29.80,SSE,162,12.7,12.7,64,0.00,CLR,SKC,0.00,WeatherDisplay:10.37,2013-05-26 20:09:00,
2013-05-26 15:14:00,83.6,70.1,29.79,SE,144,12.7,12.7,64,0.00,CLR,SKC,0.00,WeatherDisplay:10.37,2013-05-26 20:14:00,
2013-05-26 15:19:00,83.8,69.9,29.79,SE,136,17.0,17.0,63,0.00,CLR,SKC,0.00,WeatherDisplay:10.37,2013-05-26 20:19:00,
2013-05-26 15:24:00,83.5,69.6,29.79,WSW,247,11.5,11.5,63,0.00,CLR,SKC,0.00,WeatherDisplay:10.37,2013-05-26 20:24:00,
2013-05-26 15:29:00,83.7,69.3,29.79,SE,141,13.8,13.8,62,0.00,CLR,SKC,0.00,WeatherDisplay:10.37,2013-05-26 20:29:00,
2013-05-26 15:34:00,83.7,69.8,29.78,South,174,13.8,13.8,63,0.00,CLR,SKC,0.00,WeatherDisplay:10.37,2013-05-26 20:34:00,
2013-05-26 15:39:00,83.6,69.7,29.79,South,184,16.1,16.1,63,0.00,CLR,SKC,0.00,WeatherDisplay:10.37,2013-05-26 20:39:00,
2013-05-26 15:44:00,83.7,69.8,29.78,NE,35,13.8,13.8,63,0.00,CLR,SKC,0.00,WeatherDisplay:10.37,2013-05-26 20:44:00,
2013-05-26 15:49:00,84.1,69.2,29.78,South,186,15.0,15.0,61,0.00,CLR,SKC,0.00,WeatherDisplay:10.37,2013-05-26 20:49:00,
2013-05-26 15:54:00,84.4,70.4,29.78,South,190,11.5,11.5,63,0.00,CLR,SKC,0.00,WeatherDisplay:10.37,2013-05-26 20:54:00,
2013-05-26 15:59:00,85.0,70.0,29.78,SSE,163,17.0,17.0,61,0.00,CLR,SKC,0.00,WeatherDisplay:10.37,2013-05-26 20:59:00,
2013-05-26 16:04:00,84.9,69.5,29.78,SSW,193,14.8,14.8,60,0.00,CLR,SKC,0.00,WeatherDisplay:10.37,2013-05-26 21:04:00,
2013-05-26 16:09:00,85.2,70.2,29.77,South,184,12.7,12.7,61,0.00,CLR,SKC,0.00,WeatherDisplay:10.37,2013-05-26 21:09:00,
2013-05-26 16:14:00,85.6,70.6,29.77,South,169,10.6,10.6,61,0.00,CLR,SKC,0.00,WeatherDisplay:10.37,2013-05-26 21:14:00,
2013-05-26 16:19:00,85.2,69.7,29.77,SSE,150,15.0,15.0,60,0.00,CLR,SKC,0.00,WeatherDisplay:10.37,2013-05-26 21:19:00,
2013-05-26 16:24:00,84.8,69.9,29.77,ESE,118,12.7,12.7,61,0.00,CLR,SKC,0.00,WeatherDisplay:10.37,2013-05-26 21:24:00,
2013-05-26 16:29:00,84.9,69.9,29.77,South,177,11.5,11.5,61,0.00,CLR,SKC,0.00,WeatherDisplay:10.37,2013-05-26 21:29:00,
2013-05-26 16:34:00,85.4,69.9,29.77,SE,135,13.8,13.8,60,0.00,CLR,SKC,0.00,WeatherDisplay:10.37,2013-05-26 21:34:00,
2013-05-26 16:39:00,85.9,70.9,29.76,ESE,110,10.6,10.6,61,0.00,CLR,SKC,0.00,WeatherDisplay:10.37,2013-05-26 21:39:00,
2013-05-26 16:44:00,86.1,70.1,29.77,SE,124,10.6,10.6,59,0.00,CLR,SKC,0.00,WeatherDisplay:10.37,2013-05-26 21:44:00,
2013-05-26 16:49:00,85.3,69.8,29.77,SE,143,15.0,15.0,60,0.00,CLR,SKC,0.00,WeatherDisplay:10.37,2013-05-26 21:49:00,
2013-05-26 16:54:00,84.8,69.9,29.77,SE,141,13.8,13.8,61,0.00,CLR,SKC,0.00,WeatherDisplay:10.37,2013-05-26 21:54:00,
2013-05-26 16:59:00,84.9,69.9,29.76,SE,136,12.7,12.7,61,0.00,CLR,SKC,0.00,WeatherDisplay:10.37,2013-05-26 21:59:00,
2013-05-26 17:04:00,84.8,69.9,29.76,SSW,208,9.5,9.5,61,0.00,CLR,SKC,0.00,WeatherDisplay:10.37,2013-05-26 22:04:00,
2013-05-26 17:09:00,84.5,69.6,29.76,SE,143,12.7,12.7,61,0.00,CLR,SKC,0.00,WeatherDisplay:10.37,2013-05-26 22:09:00,
2013-05-26 17:14:00,84.5,70.0,29.76,SSW,195,8.5,8.5,62,0.00,CLR,SKC,0.00,WeatherDisplay:10.37,2013-05-26 22:14:00,
2013-05-26 17:19:00,84.8,70.3,29.75,SSE,148,15.9,15.9,62,0.00,CLR,SKC,0.00,WeatherDisplay:10.37,2013-05-26 22:19:00,
2013-05-26 17:24:00,85.2,69.7,29.75,SE,131,17.3,17.3,60,0.00,CLR,SKC,0.00,WeatherDisplay:10.37,2013-05-26 22:24:00,
2013-05-26 17:29:00,84.8,69.9,29.75,SSE,160,11.5,11.5,61,0.00,CLR,SKC,0.00,WeatherDisplay:10.37,2013-05-26 22:29:00,
2013-05-26 17:34:00,84.4,70.0,29.75,South,191,10.6,10.6,62,0.00,CLR,SKC,0.00,WeatherDisplay:10.37,2013-05-26 22:34:00,
2013-05-26 17:39:00,84.2,69.8,29.74,South,169,11.7,11.7,62,0.00,CLR,SKC,0.00,WeatherDisplay:10.37,2013-05-26 22:39:00,
2013-05-26 17:44:00,84.2,69.3,29.74,South,177,13.8,13.8,61,0.00,CLR,SKC,0.00,WeatherDisplay:10.37,2013-05-26 22:44:00,
2013-05-26 17:49:00,83.9,69.5,29.74,SE,141,9.5,9.5,62,0.00,CLR,SKC,0.00,WeatherDisplay:10.37,2013-05-26 22:49:00,
2013-05-26 17:54:00,84.1,69.2,29.74,SSE,160,8.1,8.1,61,0.00,CLR,SKC,0.00,WeatherDisplay:10.37,2013-05-26 22:54:00,
2013-05-26 17:59:00,84.6,69.2,29.74,SE,141,14.8,14.8,60,0.00,CLR,SKC,0.00,WeatherDisplay:10.37,2013-05-26 22:59:00,
2013-05-26 18:04:00,84.4,69.5,29.74,South,182,15.0,15.0,61,0.00,CLR,SKC,0.00,WeatherDisplay:10.37,2013-05-26 23:04:00,
2013-05-26 18:09:00,83.8,69.4,29.73,ESE,117,15.0,15.0,62,0.00,CLR,SKC,0.00,WeatherDisplay:10.37,2013-05-26 23:09:00,
2013-05-26 18:14:00,83.8,69.4,29.74,ESE,118,19.1,19.1,62,0.00,CLR,SKC,0.00,WeatherDisplay:10.37,2013-05-26 23:14:00,
2013-05-26 18:19:00,83.3,69.4,29.74,SE,132,16.1,16.1,63,0.00,CLR,SKC,0.00,WeatherDisplay:10.37,2013-05-26 23:19:00,
2013-05-26 18:24:00,82.9,69.5,29.74,SSE,149,13.8,13.8,64,0.00,CLR,SKC,0.00,WeatherDisplay:10.37,2013-05-26 23:24:00,
2013-05-26 18:29:00,82.8,68.9,29.74,SE,131,12.7,12.7,63,0.00,CLR,SKC,0.00,WeatherDisplay:10.37,2013-05-26 23:29:00,
2013-05-26 18:34:00,82.7,68.8,29.74,South,180,11.7,11.7,63,0.00,CLR,SKC,0.00,WeatherDisplay:10.37,2013-05-26 23:34:00,
2013-05-26 18:39:00,82.5,68.6,29.74,SE,143,16.1,16.1,63,0.00,CLR,SKC,0.00,WeatherDisplay:10.37,2013-05-26 23:39:00,
2013-05-26 18:44:00,82.1,68.7,29.74,SSE,158,13.8,13.8,64,0.00,CLR,SKC,0.00,WeatherDisplay:10.37,2013-05-26 23:44:00,
2013-05-26 18:49:00,82.1,68.7,29.74,South,181,13.8,13.8,64,0.00,CLR,SKC,0.00,WeatherDisplay:10.37,2013-05-26 23:49:00,
2013-05-26 18:54:00,81.6,68.7,29.74,South,174,11.5,11.5,65,0.00,CLR,SKC,0.00,WeatherDisplay:10.37,2013-05-26 23:54:00,
2013-05-26 18:59:00,81.5,68.1,29.74,SSE,168,13.8,13.8,64,0.00,CLR,SKC,0.00,WeatherDisplay:10.37,2013-05-26 23:59:00,
2013-05-26 19:04:00,80.9,68.0,29.74,ESE,113,12.7,12.7,65,0.00,CLR,SKC,0.00,WeatherDisplay:10.37,2013-05-27 00:04:00,
2013-05-26 19:09:00,80.8,67.9,29.75,SE,139,17.3,17.3,65,0.00,CLR,SKC,0.00,WeatherDisplay:10.37,2013-05-27 00:09:00,
2013-05-26 19:14:00,80.5,67.6,29.75,South,176,13.8,13.8,65,0.00,CLR,SKC,0.00,WeatherDisplay:10.37,2013-05-27 00:14:00,
2013-05-26 19:19:00,80.4,68.0,29.75,SE,138,13.8,13.8,66,0.00,CLR,SKC,0.00,WeatherDisplay:10.37,2013-05-27 00:19:00,
2013-05-26 19:24:00,80.3,67.9,29.76,SE,146,7.4,7.4,66,0.00,CLR,SKC,0.00,WeatherDisplay:10.37,2013-05-27 00:24:00,
2013-05-26 19:29:00,80.1,68.2,29.76,SE,145,10.6,10.6,67,0.00,CLR,SKC,0.00,WeatherDisplay:10.37,2013-05-27 00:29:00,
2013-05-26 19:34:00,79.9,68.0,29.76,SSE,150,13.8,13.8,67,0.00,CLR,SKC,0.00,WeatherDisplay:10.37,2013-05-27 00:34:00,
2013-05-26 19:39:00,79.8,67.9,29.76,ESE,110,8.5,8.5,67,0.00,CLR,SKC,0.00,WeatherDisplay:10.37,2013-05-27 00:39:00,
2013-05-26 19:44:00,79.7,68.2,29.76,South,183,5.8,5.8,68,0.00,CLR,SKC,0.00,WeatherDisplay:10.37,2013-05-27 00:44:00,
2013-05-26 19:49:00,79.6,67.7,29.76,SSE,147,7.0,11.0,67,0.00,CLR,SKC,0.00,WeatherDisplay:10.37,2013-05-27 00:49:00,
2013-05-26 19:54:00,79.6,67.7,29.76,SSE,161,9.2,9.2,67,0.00,CLR,SKC,0.00,WeatherDisplay:10.37,2013-05-27 00:54:00,
2013-05-26 19:59:00,79.5,67.6,29.76,ESE,119,8.1,8.1,67,0.00,CLR,SKC,0.00,WeatherDisplay:10.37,2013-05-27 00:59:00,
2013-05-26 20:04:00,79.4,67.9,29.76,SE,138,6.9,6.9,68,0.00,CLR,SKC,0.00,WeatherDisplay:10.37,2013-05-27 01:04:00,
2013-05-26 20:09:00,79.4,67.9,29.76,SE,134,5.0,10.0,68,0.00,CLR,SKC,0.00,WeatherDisplay:10.37,2013-05-27 01:09:00,
2013-05-26 20:14:00,79.3,67.8,29.76,SE,124,7.4,7.4,68,0.00,CLR,SKC,0.00,WeatherDisplay:10.37,2013-05-27 01:14:00,
2013-05-26 20:19:00,79.2,67.7,29.76,SE,139,6.9,6.9,68,0.00,CLR,SKC,0.00,WeatherDisplay:10.37,2013-05-27 01:19:00,
2013-05-26 20:24:00,79.1,68.1,29.76,SE,128,5.8,5.8,69,0.00,CLR,SKC,0.00,WeatherDisplay:10.37,2013-05-27 01:24:00,
2013-05-26 20:30:00,79.0,68.0,29.76,SE,125,6.9,6.9,69,0.00,CLR,SKC,0.00,WeatherDisplay:10.37,2013-05-27 01:30:00,
2013-05-26 20:35:00,78.9,67.9,29.76,ESE,105,9.5,9.5,69,0.00,CLR,SKC,0.00,WeatherDisplay:10.37,2013-05-27 01:35:00,
2013-05-26 20:40:00,78.9,67.9,29.76,ESE,122,8.5,8.5,69,0.00,CLR,SKC,0.00,WeatherDisplay:10.37,2013-05-27 01:40:00,
2013-05-26 20:45:00,78.9,67.9,29.76,SSE,148,6.9,6.9,69,0.00,CLR,SKC,0.00,WeatherDisplay:10.37,2013-05-27 01:45:00,
2013-05-26 20:50:00,78.8,68.2,29.76,ESE,120,9.2,9.2,70,0.00,CLR,SKC,0.00,WeatherDisplay:10.37,2013-05-27 01:50:00,
2013-05-26 20:55:00,78.7,68.1,29.76,SSE,147,9.5,9.5,70,0.00,CLR,SKC,0.00,WeatherDisplay:10.37,2013-05-27 01:55:00,
2013-05-26 21:00:00,78.6,68.0,29.76,SE,134,7.4,7.4,70,0.00,CLR,SKC,0.00,WeatherDisplay:10.37,2013-05-27 02:00:00,
2013-05-26 21:05:00,78.3,68.1,29.76,ESE,116,7.4,7.4,71,0.00,CLR,SKC,0.00,WeatherDisplay:10.37,2013-05-27 02:05:00,
2013-05-26 21:10:00,78.2,68.0,29.76,SE,134,8.5,8.5,71,0.00,CLR,SKC,0.00,WeatherDisplay:10.37,2013-05-27 02:10:00,
2013-05-26 21:15:00,78.2,68.0,29.76,SE,128,9.2,9.2,71,0.00,CLR,SKC,0.00,WeatherDisplay:10.37,2013-05-27 02:15:00,
2013-05-26 21:20:00,78.1,67.9,29.77,ESE,122,10.6,10.6,71,0.00,CLR,SKC,0.00,WeatherDisplay:10.37,2013-05-27 02:20:00,
2013-05-26 21:25:00,78.1,68.3,29.77,ESE,117,9.5,9.5,72,0.00,CLR,SKC,0.00,WeatherDisplay:10.37,2013-05-27 02:25:00,
2013-05-26 21:30:00,78.0,68.2,29.77,ESE,122,10.6,10.6,72,0.00,CLR,SKC,0.00,WeatherDisplay:10.37,2013-05-27 02:30:00,
2013-05-26 21:35:00,78.0,68.2,29.77,ESE,120,10.6,10.6,72,0.00,CLR,SKC,0.00,WeatherDisplay:10.37,2013-05-27 02:35:00,
2013-05-26 21:40:00,77.9,68.1,29.77,SE,131,10.6,10.6,72,0.00,CLR,SKC,0.00,WeatherDisplay:10.37,2013-05-27 02:40:00,
2013-05-26 21:45:00,77.9,68.5,29.77,SE,141,11.7,11.7,73,0.00,CLR,SKC,0.00,WeatherDisplay:10.37,2013-05-27 02:45:00,
2013-05-26 21:50:00,78.0,68.2,29.77,ESE,108,15.0,15.0,72,0.00,CLR,SKC,0.00,WeatherDisplay:10.37,2013-05-27 02:50:00,
2013-05-26 21:55:00,78.0,68.2,29.77,SSE,161,16.1,16.1,72,0.00,CLR,SKC,0.00,WeatherDisplay:10.37,2013-05-27 02:55:00,
2013-05-26 22:00:00,77.9,68.1,29.77,ESE,118,15.0,15.0,72,0.00,CLR,SKC,0.00,WeatherDisplay:10.37,2013-05-27 03:00:00,
2013-05-26 22:05:00,78.0,68.2,29.77,ESE,117,13.8,13.8,72,0.00,CLR,SKC,0.00,WeatherDisplay:10.37,2013-05-27 03:05:00,
2013-05-26 22:10:00,77.9,68.1,29.77,East,90,12.7,12.7,72,0.00,CLR,SKC,0.00,WeatherDisplay:10.37,2013-05-27 03:10:00,
2013-05-26 22:15:00,77.9,68.1,29.77,ESE,113,11.7,11.7,72,0.00,CLR,SKC,0.00,WeatherDisplay:10.37,2013-05-27 03:15:00,
2013-05-26 22:20:00,77.9,68.1,29.77,ESE,122,12.7,12.7,72,0.00,CLR,SKC,0.00,WeatherDisplay:10.37,2013-05-27 03:20:00,
2013-05-26 22:25:00,77.8,68.4,29.76,SE,136,17.3,17.3,73,0.00,CLR,SKC,0.00,WeatherDisplay:10.37,2013-05-27 03:25:00,
2013-05-26 22:30:00,77.8,68.0,29.76,SE,129,15.0,15.0,72,0.00,CLR,SKC,0.00,WeatherDisplay:10.37,2013-05-27 03:30:00,
2013-05-26 22:35:00,77.6,68.3,29.75,ESE,120,18.0,18.0,73,0.00,CLR,SKC,0.00,WeatherDisplay:10.37,2013-05-27 03:35:00,
2013-05-26 22:40:00,77.6,68.3,29.74,SE,133,16.1,16.1,73,0.00,CLR,SKC,0.00,WeatherDisplay:10.37,2013-05-27 03:40:00,
2013-05-26 22:45:00,77.6,68.3,29.75,SE,126,15.9,15.9,73,0.00,CLR,SKC,0.00,WeatherDisplay:10.37,2013-05-27 03:45:00,
2013-05-26 22:50:00,77.7,68.0,29.75,ESE,121,19.6,19.6,72,0.00,CLR,SKC,0.00,WeatherDisplay:10.37,2013-05-27 03:50:00,
2013-05-26 22:55:00,77.6,67.9,29.75,East,101,18.0,18.0,72,0.00,CLR,SKC,0.00,WeatherDisplay:10.37,2013-05-27 03:55:00,
2013-05-26 23:00:00,77.6,67.9,29.75,SE,134,16.1,16.1,72,0.00,CLR,SKC,0.00,WeatherDisplay:10.37,2013-05-27 04:00:00,
2013-05-26 23:01:00,77.6,67.9,29.75,East,101,17.3,17.3,72,0.00,CLR,SKC,0.00,WeatherDisplay:10.37,2013-05-27 04:01:00,
2013-05-26 23:06:00,77.5,68.2,29.75,ESE,121,12.7,12.7,73,0.00,CLR,SKC,0.00,WeatherDisplay:10.37,2013-05-27 04:06:00,
2013-05-26 23:11:00,77.4,68.1,29.75,SSE,161,12.7,12.7,73,0.00,CLR,SKC,0.00,WeatherDisplay:10.37,2013-05-27 04:11:00,
2013-05-26 23:16:00,77.2,67.9,29.74,SE,137,12.7,12.7,73,0.00,CLR,SKC,0.00,WeatherDisplay:10.37,2013-05-27 04:16:00,
2013-05-26 23:21:00,76.9,68.0,29.74,ESE,117,10.6,10.6,74,0.00,CLR,SKC,0.00,WeatherDisplay:10.37,2013-05-27 04:21:00,
2013-05-26 23:26:00,76.7,67.8,29.74,ESE,104,13.8,13.8,74,0.00,CLR,SKC,0.00,WeatherDisplay:10.37,2013-05-27 04:26:00,
2013-05-26 23:31:00,76.6,67.7,29.74,SE,131,13.8,13.8,74,0.00,CLR,SKC,0.00,WeatherDisplay:10.37,2013-05-27 04:31:00,
2013-05-26 23:36:00,76.6,67.7,29.74,SE,146,14.8,14.8,74,0.00,CLR,SKC,0.00,WeatherDisplay:10.37,2013-05-27 04:36:00,
2013-05-26 23:41:00,76.5,67.6,29.74,SSE,153,11.7,11.7,74,0.00,CLR,SKC,0.00,WeatherDisplay:10.37,2013-05-27 04:41:00,
2013-05-26 23:46:00,76.4,67.9,29.75,SE,145,12.7,12.7,75,0.00,CLR,SKC,0.00,WeatherDisplay:10.37,2013-05-27 04:46:00,
2013-05-26 23:51:00,76.2,67.7,29.75,SE,129,15.0,15.0,75,0.00,CLR,SKC,0.00,WeatherDisplay:10.37,2013-05-27 04:51:00,
2013-05-26 23:56:00,75.8,67.7,29.75,SE,127,11.7,11.7,76,0.00,CLR,SKC,0.00,WeatherDisplay:10.37,2013-05-27 04:56:00,